Time;durP1;ratioP1;P1;durP2;ratioP2;P2;SDS_P1;SDS_P2;PMS_P1;PMS_P2;Temp;Humidity;BMP_temperature;BMP_pressure;BME280_temperature;BME280_humidity;BME280_pressure;Samples;Min_cycle;Max_cycle;Signal;HPM_P1;HPM_P2
2021/12/23 00:02:04;;;;;;;;;14.25;13.00;;;;;20.59;29.95;101443.44;5053110;28;45503;-68
2021/12/23 00:04:29;;;;;;;;;13.00;11.50;;;;;20.60;29.52;101428.41;5054318;28;45504;-68
2021/12/23 00:06:55;;;;;;;;;15.25;12.50;;;;;20.60;29.72;101433.69;5054964;28;45477;-68
2021/12/23 00:09:23;;;;;;;;;14.75;12.00;;;;;20.56;29.79;101430.53;5056809;28;46380;-69
2021/12/23 00:11:49;;;;;;;;;14.25;13.00;;;;;20.60;29.36;101429.25;5058105;28;45232;-68
2021/12/23 00:14:14;;;;;;;;;11.50;10.75;;;;;20.58;29.84;101419.81;5057486;28;45371;-68
2021/12/23 00:16:55;;;;;;;;;17.75;11.25;;;;;20.59;29.72;101424.09;5056779;28;45303;-67
2021/12/23 00:24:31;;;;;;;;;13.25;12.25;;;;;20.57;29.46;101407.56;5041670;28;45508;-68
2021/12/23 00:26:57;;;;;;;;;10.25;10.25;;;;;20.62;29.74;101414.06;5057101;28;45364;-68
2021/12/23 00:29:23;;;;;;;;;12.25;12.00;;;;;20.62;29.81;101415.84;5058244;28;45468;-68
2021/12/23 00:31:48;;;;;;;;;14.50;12.25;;;;;20.60;29.52;101404.63;5056160;28;45270;-68
2021/12/23 00:34:14;;;;;;;;;12.50;10.25;;;;;20.59;29.75;101403.78;5056564;28;45472;-68
2021/12/23 00:36:43;;;;;;;;;13.25;13.25;;;;;20.62;29.75;101400.00;5052835;28;45719;-68
2021/12/23 00:39:09;;;;;;;;;9.00;9.00;;;;;20.56;29.80;101388.22;5039636;28;46274;-68
2021/12/23 00:41:34;;;;;;;;;15.75;12.75;;;;;20.63;29.74;101405.13;5042040;28;45347;-68
2021/12/23 00:44:00;;;;;;;;;11.75;11.75;;;;;20.62;29.75;101400.00;5043138;28;49711;-68
2021/12/23 00:46:25;;;;;;;;;11.50;11.50;;;;;20.64;29.81;101400.66;5028069;28;45466;-68
2021/12/23 00:48:51;;;;;;;;;13.75;10.75;;;;;20.61;30.22;101406.25;5042946;28;46554;-68
2021/12/23 00:51:16;;;;;;;;;13.50;12.75;;;;;20.63;29.87;101396.38;5038887;28;45443;-68
2021/12/23 00:53:42;;;;;;;;;12.25;12.00;;;;;20.57;29.68;101392.53;5042537;28;45327;-68
2021/12/23 00:56:11;;;;;;;;;12.25;10.75;;;;;20.59;29.68;101384.44;5043219;28;45587;-68
2021/12/23 00:58:37;;;;;;;;;11.25;11.25;;;;;20.63;29.77;101401.66;5042650;28;46368;-68
2021/12/23 01:01:03;;;;;;;;;13.00;10.25;;;;;20.62;29.66;101386.78;5043034;28;45441;-67
2021/12/23 01:03:29;;;;;;;;;13.75;13.25;;;;;20.60;29.52;101384.31;5040143;28;45472;-67
2021/12/23 01:05:55;;;;;;;;;12.75;12.75;;;;;20.61;29.70;101383.28;5040872;28;45424;-68
2021/12/23 01:08:21;;;;;;;;;11.25;11.25;;;;;20.58;29.82;101372.22;5042596;28;45903;-67
2021/12/23 01:10:50;;;;;;;;;14.50;12.50;;;;;20.60;29.87;101379.00;5042909;28;45557;-66
2021/12/23 01:13:18;;;;;;;;;17.50;15.00;;;;;20.60;29.72;101373.72;5042820;28;45517;-66
2021/12/23 01:15:58;;;;;;;;;17.25;14.25;;;;;20.58;29.71;101369.59;5041400;28;45596;-67
2021/12/23 01:18:25;;;;;;;;;12.25;12.25;;;;;20.59;29.80;101364.13;5040620;28;46218;-66
2021/12/23 01:21:03;;;;;;;;;14.00;11.50;;;;;20.54;29.38;101355.00;5057041;28;45379;-66
2021/12/23 01:23:31;;;;;;;;;12.75;11.25;;;;;20.59;29.54;101373.88;5056251;28;45462;-66
2021/12/23 01:25:56;;;;;;;;;15.00;12.25;;;;;20.56;29.62;101363.59;5053849;28;45336;-66
2021/12/23 01:28:22;;;;;;;;;13.75;12.75;;;;;20.60;29.56;101371.09;5055469;28;45443;-66
2021/12/23 01:30:48;;;;;;;;;15.25;15.00;;;;;20.56;29.66;101361.78;5055510;28;45389;-66
2021/12/23 01:33:14;;;;;;;;;13.50;13.00;;;;;20.57;29.84;101357.34;5038150;28;45576;-66
2021/12/23 01:35:41;;;;;;;;;13.00;13.00;;;;;20.51;29.72;101345.56;5057063;28;45385;-67
2021/12/23 01:38:08;;;;;;;;;13.00;13.00;;;;;20.56;29.50;101358.31;5053522;28;46441;-66
2021/12/23 01:40:34;;;;;;;;;14.00;14.00;;;;;20.58;29.52;101351.06;5053673;28;46036;-66
2021/12/23 01:43:00;;;;;;;;;14.75;13.75;;;;;20.53;29.63;101343.63;5050852;28;45358;-66
2021/12/23 01:45:30;;;;;;;;;15.75;12.50;;;;;20.55;29.82;101351.38;5053613;28;45389;-66
2021/12/23 01:47:57;;;;;;;;;14.00;12.75;;;;;20.59;29.83;101350.06;5053132;28;45436;-66
2021/12/23 01:50:26;;;;;;;;;15.75;12.75;;;;;20.54;29.88;101345.25;5052243;28;45496;-66
2021/12/23 01:52:53;;;;;;;;;15.00;13.00;;;;;20.57;29.52;101334.38;5049088;28;45424;-66
2021/12/23 01:55:19;;;;;;;;;14.75;12.25;;;;;20.52;29.48;101336.66;5050451;28;45426;-66
2021/12/23 01:57:45;;;;;;;;;15.25;15.00;;;;;20.57;29.60;101339.66;5051050;28;46521;-66
2021/12/23 02:00:14;;;;;;;;;15.75;14.75;;;;;20.57;29.59;101330.91;5054717;28;45614;-66
2021/12/23 02:02:41;;;;;;;;;13.50;13.25;;;;;20.51;29.72;101319.13;5052311;28;45394;-66
2021/12/23 02:05:08;;;;;;;;;13.75;13.75;;;;;20.57;29.76;101326.44;5042352;28;45460;-66
2021/12/23 02:07:33;;;;;;;;;15.00;13.00;;;;;20.57;29.61;101331.72;5041713;28;47895;-66
2021/12/23 02:09:59;;;;;;;;;13.25;12.75;;;;;20.56;29.81;101318.66;5041834;28;45798;-66
2021/12/23 02:12:25;;;;;;;;;10.00;10.00;;;;;20.59;29.46;101324.47;5038960;28;45552;-66
2021/12/23 02:14:50;;;;;;;;;11.25;10.00;;;;;20.52;29.46;101318.16;5039912;28;45976;-67
2021/12/23 02:17:16;;;;;;;;;13.50;13.50;;;;;20.57;29.66;101326.44;5040955;28;45437;-66
2021/12/23 02:19:41;;;;;;;;;12.00;12.00;;;;;20.58;29.66;101317.50;5041581;28;45430;-66
2021/12/23 02:22:07;;;;;;;;;16.00;13.25;;;;;20.60;29.65;101320.00;5041428;28;45303;-66
2021/12/23 02:24:32;;;;;;;;;17.00;15.00;;;;;20.61;29.65;101324.28;5039771;28;45582;-66
2021/12/23 02:26:57;;;;;;;;;13.75;13.00;;;;;20.59;29.60;101324.47;5038718;28;46003;-66
2021/12/23 02:29:23;;;;;;;;;14.50;13.50;;;;;20.56;29.74;101319.50;5051484;28;45389;-66
2021/12/23 02:31:50;;;;;;;;;13.50;13.00;;;;;20.61;29.71;101319.84;5049736;28;45464;-66
2021/12/23 02:34:20;;;;;;;;;13.50;13.00;;;;;20.62;29.42;101318.88;5050027;28;45299;-66
2021/12/23 02:36:55;;;;;;;;;11.25;10.75;;;;;20.58;29.72;101306.13;5050183;28;45351;-66
2021/12/23 02:39:22;;;;;;;;;11.00;11.00;;;;;20.59;29.57;101300.69;5021398;28;45391;-66
2021/12/23 02:41:48;;;;;;;;;13.25;12.25;;;;;20.59;29.50;101291.91;5039949;28;45333;-66
2021/12/23 02:44:15;;;;;;;;;14.25;13.00;;;;;20.59;29.64;101298.03;5042030;28;45434;-66
2021/12/23 02:46:40;;;;;;;;;11.50;10.00;;;;;20.58;29.90;101291.06;5040511;28;46290;-66
2021/12/23 02:49:06;;;;;;;;;12.75;12.00;;;;;20.58;29.52;101292.91;5041008;28;45495;-67
2021/12/23 02:51:31;;;;;;;;;11.75;11.00;;;;;20.59;29.44;101299.84;5039165;28;45464;-66
2021/12/23 02:53:57;;;;;;;;;12.75;9.50;;;;;20.56;29.54;101295.69;5038574;28;45419;-66
2021/12/23 02:56:22;;;;;;;;;14.25;12.50;;;;;20.58;29.49;101293.72;5040555;28;45370;-67
2021/12/23 02:58:48;;;;;;;;;13.00;11.25;;;;;20.59;29.49;101294.56;5040852;28;45355;-66
2021/12/23 03:01:16;;;;;;;;;16.75;12.25;;;;;20.58;29.83;101300.84;5040657;28;45323;-66
2021/12/23 03:03:43;;;;;;;;;13.25;11.75;;;;;20.57;29.71;101293.88;5040571;28;45521;-66
2021/12/23 03:06:10;;;;;;;;;17.50;11.00;;;;;20.56;29.68;101290.41;5036999;28;46379;-66
2021/12/23 03:08:41;;;;;;;;;15.00;14.75;;;;;20.54;29.55;101286.28;5039823;28;45386;-67
2021/12/23 03:11:10;;;;;;;;;18.50;14.00;;;;;20.58;29.51;101284.97;5040928;28;45514;-69
2021/12/23 03:13:36;;;;;;;;;15.00;12.75;;;;;20.57;29.65;101297.38;5040781;28;45464;-66
2021/12/23 03:16:02;;;;;;;;;14.75;12.75;;;;;20.56;29.70;101290.41;5040448;28;46613;-67
2021/12/23 03:18:28;;;;;;;;;13.75;13.00;;;;;20.53;29.68;101279.34;5037806;28;45316;-66
2021/12/23 03:20:55;;;;;;;;;12.00;11.00;;;;;20.57;29.68;101278.03;5038252;28;45326;-67
2021/12/23 03:23:20;;;;;;;;;9.75;9.75;;;;;20.48;29.58;101256.03;5040704;28;45753;-66
2021/12/23 03:25:46;;;;;;;;;15.75;14.00;;;;;20.55;29.63;101275.56;5040658;28;46053;-66
2021/12/23 03:28:11;;;;;;;;;14.75;13.50;;;;;20.57;29.73;101270.09;5044007;28;45349;-66
2021/12/23 03:30:37;;;;;;;;;13.25;11.75;;;;;20.52;29.61;101252.09;5051771;28;45513;-67
2021/12/23 03:33:03;;;;;;;;;14.75;12.25;;;;;20.57;29.59;101244.50;5054275;28;45328;-67
2021/12/23 03:35:28;;;;;;;;;14.00;13.25;;;;;20.55;29.74;101238.53;5053996;28;45357;-66
2021/12/23 03:37:54;;;;;;;;;14.00;13.00;;;;;20.55;29.48;101238.53;5053265;28;45421;-66
2021/12/23 03:40:20;;;;;;;;;11.25;11.25;;;;;20.56;29.67;101242.00;5052950;28;45473;-67
2021/12/23 03:42:46;;;;;;;;;15.00;11.25;;;;;20.56;29.60;101242.81;5053580;28;45568;-66
2021/12/23 03:45:11;;;;;;;;;11.50;11.50;;;;;20.54;29.73;101236.03;5052852;28;46266;-66
2021/12/23 03:47:38;;;;;;;;;16.50;15.50;;;;;20.56;29.58;101234.06;5055655;28;45350;-66
2021/12/23 03:50:04;;;;;;;;;12.25;12.00;;;;;20.54;29.61;101230.75;5053412;28;45414;-66
2021/12/23 03:52:30;;;;;;;;;14.75;12.75;;;;;20.52;29.76;101223.00;5053285;28;45473;-66
2021/12/23 03:54:56;;;;;;;;;11.75;11.25;;;;;20.53;29.62;101231.75;5053122;28;45501;-66
2021/12/23 03:57:21;;;;;;;;;13.00;12.50;;;;;20.54;29.62;101230.75;5052607;28;45428;-67
2021/12/23 03:59:46;;;;;;;;;15.00;14.25;;;;;20.51;29.38;101219.53;5055441;28;45370;-66
2021/12/23 04:02:12;;;;;;;;;15.75;15.00;;;;;20.55;29.66;101224.50;5053911;28;45353;-66
2021/12/23 04:04:37;;;;;;;;;18.50;13.75;;;;;20.55;29.46;101216.56;5052919;28;46556;-66
2021/12/23 04:07:03;;;;;;;;;14.00;12.00;;;;;20.56;29.61;101215.56;5053177;28;45414;-66
2021/12/23 04:09:28;;;;;;;;;13.50;12.75;;;;;20.55;29.69;101206.00;5053061;28;45425;-66
2021/12/23 04:11:54;;;;;;;;;13.25;11.75;;;;;20.55;29.61;101204.19;5053727;28;45275;-67
2021/12/23 04:14:19;;;;;;;;;17.00;16.00;;;;;20.55;29.59;101190.13;5052794;28;45363;-67
2021/12/23 04:16:44;;;;;;;;;11.25;11.00;;;;;20.55;29.47;101192.78;5052991;28;45378;-66
2021/12/23 04:19:11;;;;;;;;;16.75;14.00;;;;;20.55;29.24;101192.78;5053010;28;45635;-66
2021/12/23 04:21:37;;;;;;;;;17.00;14.00;;;;;20.57;29.54;101194.28;5053201;28;45663;-66
2021/12/23 04:24:04;;;;;;;;;13.25;12.50;;;;;20.59;29.82;101188.81;5053155;28;47307;-66
2021/12/23 04:26:29;;;;;;;;;12.25;12.00;;;;;20.58;29.26;101187.16;5054607;28;45416;-67
2021/12/23 04:28:54;;;;;;;;;10.00;10.00;;;;;20.57;29.64;101190.78;5052619;28;45578;-66
2021/12/23 04:31:22;;;;;;;;;14.50;11.50;;;;;20.59;29.43;101188.81;5052755;28;45534;-66
2021/12/23 04:33:50;;;;;;;;;12.25;11.50;;;;;20.57;29.45;101181.06;5052829;28;45397;-66
2021/12/23 04:36:17;;;;;;;;;14.50;12.00;;;;;20.58;29.51;101181.88;5035631;28;45322;-66
2021/12/23 04:38:45;;;;;;;;;11.25;10.75;;;;;20.58;29.66;101179.25;5054811;28;45429;-66
2021/12/23 04:41:11;;;;;;;;;13.75;13.00;;;;;20.57;29.58;101170.47;5051038;28;45386;-66
2021/12/23 04:43:37;;;;;;;;;15.00;11.00;;;;;20.57;29.44;101162.53;5052519;28;46402;-66
2021/12/23 04:46:03;;;;;;;;;12.00;12.00;;;;;20.59;29.52;101165.00;5052052;28;47328;-67
2021/12/23 04:48:29;;;;;;;;;13.00;13.00;;;;;20.55;29.52;101150.47;5052390;28;45549;-67
2021/12/23 04:50:54;;;;;;;;;13.75;12.75;;;;;20.56;29.54;101155.59;5055222;28;45436;-66
2021/12/23 04:53:20;;;;;;;;;13.75;13.25;;;;;20.56;29.50;101155.59;5055682;28;46307;-66
2021/12/23 04:55:45;;;;;;;;;16.75;12.75;;;;;20.56;29.53;101152.94;5055713;28;45417;-66
2021/12/23 04:58:10;;;;;;;;;18.75;14.00;;;;;20.54;29.53;101152.28;5056006;28;45444;-66
2021/12/23 05:00:36;;;;;;;;;13.50;12.00;;;;;20.52;29.51;101141.06;5056244;28;45453;-66
2021/12/23 05:03:01;;;;;;;;;13.00;11.00;;;;;20.51;29.62;101139.38;5055924;28;45360;-66
2021/12/23 05:05:27;;;;;;;;;13.25;11.00;;;;;20.52;29.62;101143.69;5058063;28;45367;-66
2021/12/23 05:07:52;;;;;;;;;15.00;13.50;;;;;20.49;29.63;101138.72;5055876;28;45489;-66
2021/12/23 05:10:19;;;;;;;;;12.25;12.25;;;;;20.55;29.60;101139.91;5055260;28;45477;-66
2021/12/23 05:12:46;;;;;;;;;16.00;14.25;;;;;20.51;30.08;101127.00;5055277;28;45478;-67
2021/12/23 05:15:17;;;;;;;;;15.00;10.25;;;;;20.55;29.55;101127.53;5055632;28;45397;-66
2021/12/23 05:17:43;;;;;;;;;12.75;11.50;;;;;20.54;29.67;101128.50;5052410;28;45433;-66
2021/12/23 05:20:11;;;;;;;;;14.50;14.50;;;;;20.56;29.50;101128.31;5054164;28;45396;-66
2021/12/23 05:22:36;;;;;;;;;17.75;12.00;;;;;20.52;29.71;101130.47;5055174;28;45662;-66
2021/12/23 05:25:04;;;;;;;;;13.00;13.00;;;;;20.55;29.54;101132.81;5054728;28;45577;-66
2021/12/23 05:27:29;;;;;;;;;13.75;11.25;;;;;20.48;29.53;101124.69;5055661;28;45329;-66
2021/12/23 05:29:55;;;;;;;;;14.25;13.75;;;;;20.53;29.52;101131.31;5055993;28;45285;-66
2021/12/23 05:32:20;;;;;;;;;14.75;11.00;;;;;20.52;29.86;101141.06;5054986;28;46196;-67
2021/12/23 05:34:46;;;;;;;;;11.00;11.00;;;;;20.53;29.60;101140.09;5055225;28;45462;-66
2021/12/23 05:37:11;;;;;;;;;16.00;13.00;;;;;20.48;29.50;101131.81;5055159;28;45726;-66
2021/12/23 05:39:36;;;;;;;;;13.75;12.75;;;;;20.53;29.69;101148.00;5036906;28;45545;-67
2021/12/23 05:42:02;;;;;;;;;12.50;11.25;;;;;20.53;29.56;101133.97;5054961;28;45435;-67
2021/12/23 05:44:27;;;;;;;;;11.75;11.75;;;;;20.45;29.88;101119.75;5057590;28;45489;-66
2021/12/23 05:46:53;;;;;;;;;13.50;12.50;;;;;20.51;29.44;101126.19;5055054;28;45409;-66
2021/12/23 05:49:18;;;;;;;;;14.75;13.75;;;;;20.54;29.38;101130.31;5055354;28;45551;-66
2021/12/23 05:51:43;;;;;;;;;14.00;12.00;;;;;20.51;29.64;101128.81;5054939;28;45454;-66
2021/12/23 05:54:09;;;;;;;;;12.25;10.50;;;;;20.55;29.47;101124.03;5054333;28;45390;-66
2021/12/23 05:56:34;;;;;;;;;17.75;14.25;;;;;20.50;29.79;101121.91;5057431;28;45220;-66
2021/12/23 05:59:00;;;;;;;;;15.25;13.50;;;;;20.55;29.38;101127.53;5053506;28;45536;-67
2021/12/23 06:01:25;;;;;;;;;15.00;13.00;;;;;20.55;29.63;101116.94;5054683;28;46087;-66
2021/12/23 06:03:51;;;;;;;;;12.25;10.00;;;;;20.53;29.59;101107.53;5054163;28;45733;-66
2021/12/23 06:06:16;;;;;;;;;14.00;12.00;;;;;20.55;29.42;101106.38;5054672;28;45391;-66
2021/12/23 06:08:43;;;;;;;;;14.75;14.00;;;;;20.56;29.55;101120.38;5056363;28;45397;-67
2021/12/23 06:11:09;;;;;;;;;14.75;13.50;;;;;20.57;29.42;101119.41;5053347;28;46478;-66
2021/12/23 06:13:35;;;;;;;;;15.50;13.25;;;;;20.55;29.24;101116.94;5054629;28;45371;-67
2021/12/23 06:16:00;;;;;;;;;10.50;9.75;;;;;20.57;29.39;101125.53;5054836;28;45298;-66
2021/12/23 06:18:26;;;;;;;;;12.25;12.25;;;;;20.49;29.64;101112.31;5054150;28;45470;-66
2021/12/23 06:20:51;;;;;;;;;13.00;12.00;;;;;20.55;29.66;101122.22;5055976;28;46619;-67
2021/12/23 06:23:17;;;;;;;;;15.00;12.50;;;;;20.58;29.43;101118.44;5054890;28;45425;-66
2021/12/23 06:25:43;;;;;;;;;12.75;11.50;;;;;20.56;29.55;101115.94;5054740;28;45660;-67
2021/12/23 06:28:08;;;;;;;;;14.75;12.75;;;;;20.53;29.52;101116.28;5054429;28;45298;-66
2021/12/23 06:30:34;;;;;;;;;13.25;11.25;;;;;20.54;29.56;101122.38;5036550;28;47861;-66
2021/12/23 06:32:59;;;;;;;;;13.50;12.25;;;;;20.57;29.57;101132.63;5055267;28;45652;-66
2021/12/23 06:35:30;;;;;;;;;14.00;12.50;;;;;20.56;29.57;101118.59;5054337;28;45500;-66
2021/12/23 06:37:56;;;;;;;;;13.00;12.00;;;;;20.57;29.13;101127.34;5052403;28;45524;-66
2021/12/23 06:40:23;;;;;;;;;11.75;9.75;;;;;20.54;29.53;101117.09;5053675;28;47328;-66
2021/12/23 06:42:49;;;;;;;;;15.00;12.50;;;;;20.55;29.54;101114.31;5054092;28;45283;-67
2021/12/23 06:45:15;;;;;;;;;10.25;10.00;;;;;20.50;29.61;101108.69;5037088;28;45319;-67
2021/12/23 06:47:42;;;;;;;;;14.75;11.25;;;;;20.51;29.56;101107.66;5056441;28;45353;-67
2021/12/23 06:50:09;;;;;;;;;10.25;9.00;;;;;20.55;29.52;101105.53;5052563;28;47202;-67
2021/12/23 06:52:36;;;;;;;;;14.50;12.00;;;;;20.54;29.65;101102.06;5053658;28;45352;-67
2021/12/23 06:55:03;;;;;;;;;14.00;11.50;;;;;20.54;29.43;101101.22;5054041;28;45267;-67
2021/12/23 06:57:29;;;;;;;;;13.00;13.00;;;;;20.35;29.22;101071.50;5053806;28;45398;-67
2021/12/23 06:59:54;;;;;;;;;13.50;11.50;;;;;20.49;29.58;101097.28;5054764;28;45381;-67
2021/12/23 07:02:20;;;;;;;;;13.50;12.25;;;;;20.51;29.52;101105.03;5054691;28;45442;-67
2021/12/23 07:04:45;;;;;;;;;13.25;12.50;;;;;20.51;29.59;101105.88;5053818;28;45809;-67
2021/12/23 07:07:19;;;;;;;;;12.75;12.50;;;;;20.49;29.54;101110.50;5053680;28;45256;-67
2021/12/23 07:09:45;;;;;;;;;16.50;13.25;;;;;20.49;29.52;101107.84;5053260;28;46611;-67
2021/12/23 07:12:12;;;;;;;;;15.50;11.50;;;;;20.47;29.48;101103.72;5053788;28;45671;-67
2021/12/23 07:14:38;;;;;;;;;14.75;11.25;;;;;20.54;29.55;101122.38;5054967;28;45347;-67
2021/12/23 07:17:05;;;;;;;;;13.75;13.75;;;;;20.53;29.47;101112.81;5052229;28;45426;-66
2021/12/23 07:19:30;;;;;;;;;13.75;11.50;;;;;20.52;29.60;101109.34;5053465;28;45309;-68
2021/12/23 07:21:55;;;;;;;;;11.25;9.75;;;;;20.49;29.52;101091.16;5051359;28;45364;-67
2021/12/23 07:24:21;;;;;;;;;16.25;12.00;;;;;20.49;29.71;101097.28;5053685;28;45358;-67
2021/12/23 07:26:47;;;;;;;;;15.00;12.00;;;;;20.51;29.59;101103.22;5034302;28;45330;-67
2021/12/23 07:29:13;;;;;;;;;13.75;13.25;;;;;20.51;29.38;101118.25;5054481;28;45448;-67
2021/12/23 07:31:38;;;;;;;;;14.00;11.75;;;;;20.47;29.46;101104.53;5053382;28;45552;-67
2021/12/23 07:34:03;;;;;;;;;9.00;8.75;;;;;20.49;29.77;101114.94;5053838;28;45370;-67
2021/12/23 07:36:29;;;;;;;;;15.25;15.00;;;;;20.48;29.43;101108.81;5053142;28;45472;-67
2021/12/23 07:38:56;;;;;;;;;13.25;11.75;;;;;20.49;29.71;101120.22;5054500;28;45578;-67
2021/12/23 07:41:22;;;;;;;;;9.50;9.50;;;;;20.47;29.63;101111.66;5054487;28;45460;-67
2021/12/23 07:46:23;;;;;;;;;13.50;12.25;;;;;20.53;29.59;101107.53;5053222;28;45521;-67
2021/12/23 07:48:48;;;;;;;;;13.25;13.00;;;;;20.51;29.54;101102.38;5053355;28;46650;-66
2021/12/23 07:51:14;;;;;;;;;13.50;13.50;;;;;20.50;29.55;101093.66;5052939;28;45443;-67
2021/12/23 07:53:39;;;;;;;;;16.50;14.00;;;;;20.50;29.69;101098.94;5038071;28;45355;-67
2021/12/23 07:56:05;;;;;;;;;13.00;11.00;;;;;20.51;29.60;101095.28;5051731;28;45418;-67
2021/12/23 07:58:30;;;;;;;;;16.75;14.25;;;;;20.54;29.66;101099.41;5052522;28;45517;-67
2021/12/23 08:00:56;;;;;;;;;13.00;13.00;;;;;20.49;29.49;101099.09;5052745;28;45518;-67
2021/12/23 08:03:21;;;;;;;;;12.00;11.25;;;;;20.54;29.62;101109.16;5053420;28;45349;-66
2021/12/23 08:05:47;;;;;;;;;13.00;13.00;;;;;20.51;29.66;101105.88;5055071;28;45363;-67
2021/12/23 08:08:12;;;;;;;;;13.50;12.25;;;;;20.55;29.50;101110.81;5051924;28;46165;-67
2021/12/23 08:10:37;;;;;;;;;13.50;10.75;;;;;20.52;29.55;101104.06;5035044;28;45504;-67
2021/12/23 08:13:03;;;;;;;;;14.25;11.50;;;;;20.54;29.58;101095.94;5053119;28;45867;-67
2021/12/23 08:15:28;;;;;;;;;11.25;11.00;;;;;20.53;29.66;101105.72;5053245;28;45385;-67
2021/12/23 08:17:54;;;;;;;;;12.50;12.50;;;;;20.52;29.55;101104.06;5054244;28;46424;-67
2021/12/23 08:20:20;;;;;;;;;12.50;11.00;;;;;20.53;29.63;101099.59;5053964;28;45675;-67
2021/12/23 08:22:46;;;;;;;;;11.75;11.50;;;;;20.51;29.40;101105.88;5053197;28;45540;-67
2021/12/23 08:25:12;;;;;;;;;13.75;12.75;;;;;20.54;29.66;101106.53;5053587;28;45322;-67
2021/12/23 08:27:39;;;;;;;;;13.75;12.50;;;;;20.54;29.54;101104.72;5056575;28;46145;-67
2021/12/23 08:30:07;;;;;;;;;12.50;11.50;;;;;20.54;29.62;101101.22;5056466;28;45381;-67
2021/12/23 08:32:33;;;;;;;;;16.00;13.00;;;;;20.54;29.42;101098.59;5058487;28;45415;-67
2021/12/23 08:34:59;;;;;;;;;15.00;12.75;;;;;20.53;29.62;101100.44;5054489;28;45476;-67
2021/12/23 08:37:24;;;;;;;;;12.00;11.75;;;;;20.46;29.53;101087.03;5056294;28;45492;-67
2021/12/23 08:39:51;;;;;;;;;12.00;10.75;;;;;20.47;29.49;101096.63;5056110;28;45330;-67
2021/12/23 08:42:16;;;;;;;;;11.00;10.25;;;;;20.45;29.66;101087.19;5056581;28;45393;-67
2021/12/23 08:44:41;;;;;;;;;15.00;12.75;;;;;20.51;29.65;101102.38;5058451;28;45483;-67
2021/12/23 08:47:12;;;;;;;;;10.00;10.00;;;;;20.50;29.70;101106.03;5054476;28;45480;-67
2021/12/23 08:49:37;;;;;;;;;13.00;13.00;;;;;20.51;29.57;101102.38;5055710;28;45385;-67
2021/12/23 08:52:03;;;;;;;;;13.75;11.50;;;;;20.51;29.64;101103.22;5055904;28;45398;-67
2021/12/23 08:54:29;;;;;;;;;12.75;11.25;;;;;20.49;29.93;101093.81;5056255;28;45221;-67
2021/12/23 08:56:54;;;;;;;;;13.25;12.75;;;;;20.51;29.56;101092.66;5057092;28;47096;-67
2021/12/23 08:59:20;;;;;;;;;13.50;11.00;;;;;20.49;29.67;101096.44;5057066;28;45536;-67
2021/12/23 09:01:46;;;;;;;;;14.00;12.25;;;;;20.48;29.69;101092.16;5055923;28;45579;-67
2021/12/23 09:04:12;;;;;;;;;16.50;14.00;;;;;20.51;29.49;101099.75;5055824;28;45350;-67
2021/12/23 09:06:37;;;;;;;;;11.25;11.25;;;;;20.46;29.49;101089.66;5054839;28;46146;-66
2021/12/23 09:09:03;;;;;;;;;13.50;13.50;;;;;20.50;29.80;101092.81;5050616;28;45734;-67
2021/12/23 09:11:29;;;;;;;;;11.25;11.00;;;;;20.43;29.65;101075.97;5042217;28;45414;-66
2021/12/23 09:13:54;;;;;;;;;12.50;11.50;;;;;20.51;29.56;101087.34;5032557;28;45583;-67
2021/12/23 09:16:20;;;;;;;;;15.50;14.50;;;;;20.47;29.65;101079.94;5041797;28;47211;-67
2021/12/23 09:18:45;;;;;;;;;12.50;12.50;;;;;20.48;29.83;101079.75;5042272;28;45454;-66
2021/12/23 09:21:12;;;;;;;;;17.75;12.50;;;;;20.50;29.78;101074.31;5039144;28;45607;-67
2021/12/23 09:23:41;;;;;;;;;12.00;11.00;;;;;20.47;29.77;101069.34;5042251;28;45275;-67
2021/12/23 09:26:09;;;;;;;;;13.25;11.50;;;;;20.48;29.72;101065.72;5042367;28;45450;-67
2021/12/23 09:33:46;;;;;;;;;12.00;12.00;;;;;20.50;29.75;101075.16;5042135;28;45338;-67
2021/12/23 09:36:13;;;;;;;;;11.50;10.50;;;;;20.50;29.71;101071.69;5038362;28;46201;-67
2021/12/23 09:38:39;;;;;;;;;11.00;9.75;;;;;20.48;29.74;101071.03;5040498;28;45308;-67
2021/12/23 09:41:12;;;;;;;;;14.25;13.25;;;;;20.46;29.80;101065.03;5048518;28;45604;-67
2021/12/23 09:43:39;;;;;;;;;14.00;12.25;;;;;20.51;29.72;101075.94;5050887;28;45532;-68
2021/12/23 09:46:08;;;;;;;;;11.75;11.75;;;;;20.52;29.82;101085.53;5049754;28;45752;-68
2021/12/23 09:48:34;;;;;;;;;15.50;11.75;;;;;20.48;29.96;101087.69;5052213;28;45410;-69
2021/12/23 09:51:04;;;;;;;;;18.25;16.25;;;;;20.54;29.78;101093.31;5054018;28;45362;-69
2021/12/23 09:53:31;;;;;;;;;12.25;12.00;;;;;20.53;29.72;101094.31;5043328;28;45382;-68
2021/12/23 09:55:58;;;;;;;;;13.25;11.50;;;;;20.53;29.84;101100.44;5041843;28;47300;-68
2021/12/23 09:58:24;;;;;;;;;11.00;10.00;;;;;20.47;29.70;101086.03;5041477;28;45378;-68
2021/12/23 10:00:51;;;;;;;;;12.25;12.00;;;;;20.56;29.83;101107.19;5042143;28;45364;-68
2021/12/23 10:03:19;;;;;;;;;13.25;10.75;;;;;20.56;29.65;101115.09;5038007;28;45431;-68
2021/12/23 10:05:45;;;;;;;;;10.75;10.25;;;;;20.55;29.88;101111.66;5057122;28;47307;-68
2021/12/23 10:08:13;;;;;;;;;16.00;13.00;;;;;20.54;29.89;101107.34;5050191;28;45390;-68
2021/12/23 10:10:53;;;;;;;;;13.75;11.75;;;;;20.55;29.79;101109.03;5050472;28;45951;-68
2021/12/23 10:38:13;;;;;;;;;14.50;13.50;;;;;20.54;29.98;101086.19;5013289;28;45699;-68
2021/12/23 10:40:42;;;;;;;;;17.25;13.00;;;;;20.51;30.02;101087.34;5013498;28;45562;-68
2021/12/23 10:43:11;;;;;;;;;17.75;14.75;;;;;20.46;29.67;101065.03;5013576;28;45461;-69
2021/12/23 10:45:55;;;;;;;;;16.25;13.50;;;;;20.53;29.90;101076.63;5013233;28;45509;-68
2021/12/23 10:48:20;;;;;;;;;17.25;14.25;;;;;20.51;29.71;101071.50;4998258;28;46043;-67
2021/12/23 10:50:50;;;;;;;;;14.25;13.25;;;;;20.50;30.00;101069.88;5014080;28;45403;-67
2021/12/23 10:53:39;;;;;;;;;14.00;13.25;;;;;20.53;30.13;101071.34;5013367;28;45471;-67
2021/12/23 10:59:10;;;;;;;;;14.50;12.00;;;;;20.50;30.00;101061.94;5012758;28;45609;-67
2021/12/23 11:01:56;;;;;;;;;16.50;14.00;;;;;20.51;30.15;101062.75;5005041;28;45490;-67
2021/12/23 11:04:22;;;;;;;;;13.00;13.00;;;;;20.49;29.63;101044.41;5022472;28;50230;-69
2021/12/23 11:06:56;;;;;;;;;16.00;14.00;;;;;20.48;30.13;101036.66;5029682;28;45744;-68
2021/12/23 11:09:39;;;;;;;;;12.75;12.50;;;;;20.51;30.16;101038.94;5017154;28;46993;-67
2021/12/23 11:27:25;;;;;;;;;13.25;13.00;;;;;20.52;30.05;101027.41;5031409;28;45559;-68
2021/12/23 11:38:19;;;;;;;;;15.00;13.00;;;;;20.50;30.23;101030.22;4989464;28;45542;-67
2021/12/23 11:45:40;;;;;;;;;17.50;17.00;;;;;20.49;30.04;101002.13;4990760;28;45489;-68
2021/12/23 11:48:08;;;;;;;;;13.75;12.00;;;;;20.52;30.24;101006.25;4991660;28;45610;-68
2021/12/23 11:50:42;;;;;;;;;12.50;12.25;;;;;20.50;30.41;101000.31;4989277;28;45516;-69
2021/12/23 11:53:08;;;;;;;;;15.50;14.50;;;;;20.51;30.06;101005.41;4991387;28;46088;-66
2021/12/23 11:55:35;;;;;;;;;12.25;12.25;;;;;20.56;30.15;101004.09;4991707;28;45439;-69
2021/12/23 11:58:01;;;;;;;;;15.50;13.25;;;;;20.51;30.29;100994.00;4991151;28;45573;-67
2021/12/23 12:00:41;;;;;;;;;12.25;12.25;;;;;20.52;30.28;100995.69;4990924;28;45501;-69
2021/12/23 12:03:07;;;;;;;;;13.75;13.25;;;;;20.52;30.14;100985.09;4991542;28;46369;-68
2021/12/23 12:05:33;;;;;;;;;18.50;15.25;;;;;20.55;30.13;100979.50;4993186;28;45431;-68
2021/12/23 12:08:10;;;;;;;;;14.25;14.00;;;;;20.56;30.45;100978.47;4991439;28;45463;-68
2021/12/23 12:10:37;;;;;;;;;18.25;14.25;;;;;20.54;30.16;100972.53;4990154;28;45937;-68
2021/12/23 12:13:07;;;;;;;;;12.75;12.75;;;;;20.55;30.38;100981.31;5007549;28;46683;-68
2021/12/23 12:15:41;;;;;;;;;17.00;14.75;;;;;20.52;30.34;100977.19;5013078;28;45414;-68
2021/12/23 12:18:11;;;;;;;;;16.25;14.00;;;;;20.51;30.26;100973.69;5012254;28;45453;-68